createdAt,value
2023-10-16T00:00:38.308Z,2.79
2023-10-16T00:01:38.282Z,2.62
2023-10-16T00:02:38.274Z,2.43
2023-10-16T00:03:38.296Z,2.33
2023-10-16T00:04:38.347Z,2.43
2023-10-16T00:05:38.231Z,2.44
2023-10-16T00:06:38.251Z,2.60
2023-10-16T00:07:38.216Z,2.46
2023-10-16T00:08:38.232Z,2.38
2023-10-16T00:09:38.264Z,2.42
2023-10-16T00:10:38.190Z,2.39
2023-10-16T00:11:38.175Z,2.32
2023-10-16T00:12:38.290Z,2.35
2023-10-16T00:13:38.197Z,2.38
2023-10-16T00:14:38.176Z,2.43
2023-10-16T00:15:38.257Z,2.32
2023-10-16T00:16:38.253Z,2.24
2023-10-16T00:17:38.195Z,2.39
2023-10-16T00:18:38.189Z,2.25
2023-10-16T00:19:38.140Z,2.29
2023-10-16T00:20:38.140Z,2.14
2023-10-16T00:21:38.138Z,2.13
2023-10-16T00:22:38.167Z,1.99
2023-10-16T00:23:38.118Z,2.02
2023-10-16T00:24:38.175Z,1.91
2023-10-16T00:25:38.122Z,1.77
2023-10-16T00:26:38.141Z,1.68
2023-10-16T00:27:38.107Z,1.63
2023-10-16T00:28:38.108Z,1.63
2023-10-16T00:29:38.088Z,1.71
2023-10-16T00:30:38.086Z,1.77
2023-10-16T00:31:38.127Z,1.78
2023-10-16T00:32:38.126Z,1.68
2023-10-16T00:33:38.094Z,1.66
2023-10-16T00:34:38.045Z,1.48
2023-10-16T00:35:38.028Z,1.56
2023-10-16T00:36:38.127Z,1.68
2023-10-16T00:37:38.021Z,1.58
2023-10-16T00:38:38.008Z,1.49
2023-10-16T00:39:38.094Z,1.55
2023-10-16T00:40:38.005Z,1.58
2023-10-16T00:41:38.019Z,1.84
2023-10-16T00:42:38.033Z,2.06
2023-10-16T00:43:37.994Z,1.95
2023-10-16T00:44:37.982Z,1.97
2023-10-16T00:45:38.023Z,2.17
2023-10-16T00:46:38.120Z,2.00
2023-10-16T00:47:38.044Z,1.92
2023-10-16T00:48:37.990Z,1.97
2023-10-16T00:49:37.946Z,2.08
2023-10-16T00:50:37.989Z,1.97
2023-10-16T00:51:40.966Z,1.85
2023-10-16T00:52:38.974Z,1.87
2023-10-16T00:53:37.924Z,2.07
2023-10-16T00:54:37.926Z,2.02
2023-10-16T00:55:37.941Z,2.00
2023-10-16T00:56:37.905Z,2.08
2023-10-16T00:57:37.962Z,2.06
2023-10-16T00:58:37.888Z,2.10
2023-10-16T00:59:37.911Z,2.22
2023-10-16T01:00:37.949Z,2.26
2023-10-16T01:01:37.909Z,2.25
2023-10-16T01:02:37.936Z,2.25
2023-10-16T01:03:38.085Z,2.13
2023-10-16T01:04:37.870Z,2.25
2023-10-16T01:05:37.835Z,2.31
2023-10-16T01:06:38.861Z,2.25
2023-10-16T01:07:37.821Z,2.35
2023-10-16T01:08:37.817Z,2.54
2023-10-16T01:09:38.060Z,2.43
2023-10-16T01:10:37.810Z,2.42
2023-10-16T01:11:37.792Z,2.38
2023-10-16T01:12:37.869Z,2.46
2023-10-16T01:13:38.864Z,2.42
2023-10-16T01:14:37.812Z,2.49
2023-10-16T01:15:37.818Z,2.51
2023-10-16T01:16:37.821Z,2.53
2023-10-16T01:17:37.808Z,2.51
2023-10-16T01:18:37.821Z,2.47
2023-10-16T01:19:37.752Z,2.50
2023-10-16T01:20:37.752Z,2.51
2023-10-16T01:21:37.758Z,2.61
2023-10-16T01:22:37.728Z,2.53
2023-10-16T01:23:37.742Z,2.57
2023-10-16T01:24:37.732Z,2.57
2023-10-16T01:25:37.740Z,2.46
2023-10-16T01:26:37.701Z,2.33
2023-10-16T01:27:37.755Z,2.28
2023-10-16T01:28:37.714Z,2.32
2023-10-16T01:29:37.726Z,2.38
2023-10-16T01:30:37.696Z,2.36
2023-10-16T01:31:37.728Z,2.28
2023-10-16T01:32:37.717Z,2.28
2023-10-16T01:33:37.690Z,2.32
2023-10-16T01:34:37.649Z,2.22
2023-10-16T01:35:37.648Z,2.20
2023-10-16T01:36:37.676Z,2.22
2023-10-16T01:37:37.647Z,2.29
2023-10-16T01:38:37.691Z,2.18
2023-10-16T01:39:37.634Z,2.08
2023-10-16T01:40:37.631Z,2.14
2023-10-16T01:41:37.622Z,2.00
2023-10-16T01:42:37.662Z,1.97
2023-10-16T01:43:37.591Z,1.89
2023-10-16T01:44:37.577Z,1.80
2023-10-16T01:45:38.662Z,1.80
2023-10-16T01:46:37.656Z,1.71
2023-10-16T01:47:37.599Z,1.63
2023-10-16T01:48:37.629Z,1.53
2023-10-16T01:49:37.559Z,1.53
2023-10-16T01:50:37.552Z,1.48
2023-10-16T01:51:37.578Z,1.70
2023-10-16T01:52:37.542Z,1.89
2023-10-16T01:53:37.531Z,1.97
2023-10-16T01:54:37.555Z,1.99
2023-10-16T01:55:37.541Z,2.08
2023-10-16T01:56:37.521Z,2.10
2023-10-16T01:57:37.560Z,2.18
2023-10-16T01:58:37.509Z,2.08
2023-10-16T01:59:37.499Z,2.02
2023-10-16T02:00:37.598Z,2.17
2023-10-16T02:01:37.540Z,2.07
2023-10-16T02:02:37.515Z,2.13
2023-10-16T02:03:37.565Z,2.18
2023-10-16T02:04:37.485Z,2.17
2023-10-16T02:05:37.492Z,2.26
2023-10-16T02:06:37.480Z,2.26
2023-10-16T02:07:37.455Z,2.42
2023-10-16T02:08:37.452Z,2.38
2023-10-16T02:09:37.518Z,2.29
2023-10-16T02:10:37.437Z,2.26
2023-10-16T02:11:37.421Z,2.33
2023-10-16T02:12:37.413Z,2.31
2023-10-16T02:13:37.407Z,2.35
2023-10-16T02:14:37.423Z,2.29
2023-10-16T02:15:37.506Z,2.32
2023-10-16T02:16:37.414Z,2.32
2023-10-16T02:17:37.410Z,2.44
2023-10-16T02:18:37.428Z,2.43
2023-10-16T02:19:37.399Z,2.33
2023-10-16T02:20:37.364Z,2.35
2023-10-16T02:21:37.419Z,2.26
2023-10-16T02:22:37.349Z,2.35
2023-10-16T02:23:37.385Z,2.28
2023-10-16T02:24:37.366Z,2.26
2023-10-16T02:25:37.333Z,2.38
2023-10-16T02:26:37.333Z,2.35
2023-10-16T02:27:37.375Z,2.35
2023-10-16T02:28:37.327Z,2.29
2023-10-16T02:29:37.304Z,2.24
2023-10-16T02:30:37.469Z,2.10
2023-10-16T02:31:37.338Z,1.94
2023-10-16T02:32:37.332Z,1.88
2023-10-16T02:33:37.315Z,1.76
2023-10-16T02:34:37.282Z,1.63
2023-10-16T02:35:37.277Z,1.62
2023-10-16T02:36:37.346Z,1.60
2023-10-16T02:37:37.299Z,1.44
2023-10-16T02:38:37.257Z,1.67
2023-10-16T02:39:37.259Z,1.88
2023-10-16T02:40:37.258Z,1.99
2023-10-16T02:41:37.234Z,2.10
2023-10-16T02:42:37.294Z,2.08
2023-10-16T02:43:37.219Z,2.28
2023-10-16T02:44:37.219Z,2.18
2023-10-16T02:45:37.234Z,2.17
2023-10-16T02:46:37.262Z,2.15
2023-10-16T02:47:37.244Z,2.33
2023-10-16T02:48:37.206Z,2.32
2023-10-16T02:49:37.187Z,2.36
2023-10-16T02:50:37.175Z,2.35
2023-10-16T02:51:37.290Z,2.47
2023-10-16T02:52:37.165Z,2.47
2023-10-16T02:53:37.164Z,2.39
2023-10-16T02:54:37.184Z,2.39
2023-10-16T02:55:37.143Z,2.53
2023-10-16T02:56:37.191Z,2.51
2023-10-16T02:57:37.165Z,2.51
2023-10-16T02:58:37.125Z,2.46
2023-10-16T02:59:37.129Z,2.51
2023-10-16T03:00:37.170Z,2.47
2023-10-16T03:01:37.165Z,2.53
2023-10-16T03:02:37.181Z,2.50
2023-10-16T03:03:37.149Z,2.57
2023-10-16T03:04:37.116Z,2.62
2023-10-16T03:05:37.104Z,2.56
2023-10-16T03:06:37.098Z,2.62
2023-10-16T03:07:37.067Z,2.64
2023-10-16T03:08:37.071Z,2.51
2023-10-16T03:09:37.095Z,2.44
2023-10-16T03:10:37.068Z,2.35
2023-10-16T03:11:37.036Z,2.44
2023-10-16T03:12:37.061Z,2.33
2023-10-16T03:13:37.186Z,2.28
2023-10-16T03:14:37.064Z,2.38
2023-10-16T03:15:37.093Z,2.25
2023-10-16T03:16:37.055Z,2.29
2023-10-16T03:17:37.069Z,2.42
2023-10-16T03:18:37.046Z,2.26
2023-10-16T03:19:37.009Z,2.29
2023-10-16T03:20:37.056Z,2.20
2023-10-16T03:21:37.037Z,2.18
2023-10-16T03:22:37.061Z,1.76
2023-10-16T03:23:36.958Z,1.94
2023-10-16T03:24:37.007Z,1.99
2023-10-16T03:25:36.950Z,2.20
2023-10-16T03:26:36.943Z,2.24
2023-10-16T03:27:36.930Z,2.36
2023-10-16T03:28:38.090Z,2.35
2023-10-16T03:29:36.984Z,2.47
2023-10-16T03:30:37.013Z,2.54
2023-10-16T03:31:36.980Z,2.51
2023-10-16T03:32:37.086Z,2.50
2023-10-16T03:33:36.983Z,2.54
2023-10-16T03:34:37.236Z,2.74
2023-10-16T03:35:36.977Z,2.65
2023-10-16T03:36:36.986Z,2.50
2023-10-16T03:37:36.969Z,2.44
2023-10-16T03:38:36.902Z,2.49
2023-10-16T03:39:37.951Z,2.18
2023-10-16T03:40:38.075Z,2.35
2023-10-16T03:41:36.862Z,2.33
2023-10-16T03:42:36.885Z,2.33
2023-10-16T03:43:36.870Z,2.38
2023-10-16T03:44:37.997Z,2.24
2023-10-16T03:45:37.427Z,2.14
2023-10-16T03:46:36.906Z,1.97
2023-10-16T03:47:36.882Z,2.02
2023-10-16T03:48:36.828Z,2.07
2023-10-16T03:49:38.620Z,1.92
2023-10-16T03:50:37.941Z,1.81
2023-10-16T03:51:36.938Z,1.81
2023-10-16T03:52:36.818Z,2.11
2023-10-16T03:53:36.840Z,2.07
2023-10-16T03:54:37.079Z,2.15
2023-10-16T03:55:36.950Z,2.10
2023-10-16T03:56:36.874Z,2.07
2023-10-16T03:57:36.908Z,2.29
2023-10-16T03:58:37.397Z,2.17
2023-10-16T03:59:36.793Z,2.38
2023-10-16T04:00:36.843Z,2.22
2023-10-16T04:01:36.807Z,2.28
2023-10-16T04:02:37.910Z,2.18
2023-10-16T04:03:36.812Z,2.14
2023-10-16T04:04:36.863Z,2.10
2023-10-16T04:05:36.761Z,2.14
2023-10-16T04:06:36.763Z,2.07
2023-10-16T04:07:36.689Z,2.15
2023-10-16T04:08:36.677Z,2.15
2023-10-16T04:09:36.679Z,2.04
2023-10-16T04:10:36.680Z,2.07
2023-10-16T04:11:36.867Z,2.14
2023-10-16T04:12:36.759Z,1.88
2023-10-16T04:13:36.667Z,1.73
2023-10-16T04:14:36.712Z,1.66
2023-10-16T04:15:37.578Z,1.58
2023-10-16T04:16:36.720Z,1.77
2023-10-16T04:17:36.664Z,1.78
2023-10-16T04:18:36.707Z,1.76
2023-10-16T04:19:36.655Z,1.89
2023-10-16T04:20:36.623Z,2.00
2023-10-16T04:21:36.618Z,2.08
2023-10-16T04:22:36.633Z,2.15
2023-10-16T04:23:36.605Z,2.20
2023-10-16T04:24:36.755Z,2.26
2023-10-16T04:25:36.678Z,2.26
2023-10-16T04:26:36.653Z,2.20
2023-10-16T04:27:36.690Z,2.20
2023-10-16T04:28:36.659Z,2.24
2023-10-16T04:29:36.700Z,2.24
2023-10-16T04:30:36.595Z,2.14
2023-10-16T04:31:36.568Z,2.22
2023-10-16T04:32:36.692Z,2.25
2023-10-16T04:33:36.631Z,2.24
2023-10-16T04:34:36.530Z,2.29
2023-10-16T04:35:36.736Z,2.24
2023-10-16T04:36:36.532Z,2.31
2023-10-16T04:37:36.536Z,2.20
2023-10-16T04:38:36.508Z,2.22
2023-10-16T04:39:36.532Z,2.22
2023-10-16T04:40:36.479Z,2.08
2023-10-16T04:41:36.470Z,1.94
2023-10-16T04:42:36.536Z,1.80
2023-10-16T04:43:36.502Z,1.95
2023-10-16T04:44:36.449Z,1.78
2023-10-16T04:45:36.776Z,1.80
2023-10-16T04:46:36.468Z,1.63
2023-10-16T04:47:36.474Z,1.68
2023-10-16T04:48:36.484Z,1.73
2023-10-16T04:49:36.428Z,1.59
2023-10-16T04:51:50.201Z,1.60
2023-10-16T04:52:38.416Z,1.66
2023-10-16T04:53:36.420Z,1.58
2023-10-16T04:54:36.401Z,1.55
2023-10-16T04:55:36.375Z,1.49
2023-10-16T04:56:36.377Z,1.49
2023-10-16T04:57:36.504Z,1.63
2023-10-16T04:58:36.362Z,1.63
2023-10-16T04:59:36.355Z,1.70
2023-10-16T05:00:38.285Z,1.63
2023-10-16T05:01:36.434Z,1.62
2023-10-16T05:02:36.441Z,1.63
2023-10-16T05:03:36.642Z,1.62
2023-10-16T05:04:36.433Z,1.59
2023-10-16T05:05:36.453Z,1.63
2023-10-16T05:06:37.396Z,1.66
2023-10-16T05:07:36.322Z,1.68
2023-10-16T05:08:36.916Z,1.50
2023-10-16T05:09:36.884Z,1.52
2023-10-16T05:10:36.898Z,1.55
2023-10-16T05:11:36.445Z,1.60
2023-10-16T05:12:36.330Z,1.67
2023-10-16T05:13:36.890Z,1.59
2023-10-16T05:14:36.462Z,1.60
2023-10-16T05:15:36.368Z,1.58
2023-10-16T05:16:36.707Z,1.48
2023-10-16T05:17:36.263Z,1.56
2023-10-16T05:18:36.279Z,1.58
2023-10-16T05:19:36.348Z,1.55
2023-10-16T05:20:36.271Z,1.63
2023-10-16T05:21:36.972Z,1.60
2023-10-16T05:22:36.281Z,1.52
2023-10-16T05:23:36.872Z,1.56
2023-10-16T05:24:36.308Z,1.55
2023-10-16T05:25:36.454Z,1.59
2023-10-16T05:26:36.390Z,1.58
2023-10-16T05:27:36.283Z,1.56
2023-10-16T05:28:36.215Z,1.48
2023-10-16T05:29:50.030Z,1.49
2023-10-16T05:30:38.235Z,1.50
2023-10-16T05:31:36.502Z,1.42
2023-10-16T05:32:36.232Z,1.52
2023-10-16T05:33:36.297Z,1.63
2023-10-16T05:34:36.164Z,1.49
2023-10-16T05:35:36.176Z,1.56
2023-10-16T05:36:36.290Z,1.66
2023-10-16T05:37:36.119Z,1.73
2023-10-16T05:38:36.104Z,1.67
2023-10-16T05:39:36.170Z,1.67
2023-10-16T05:40:36.430Z,1.77
2023-10-16T05:41:36.134Z,1.80
2023-10-16T05:42:36.172Z,1.76
2023-10-16T05:43:36.205Z,1.73
2023-10-16T05:44:36.761Z,1.70
2023-10-16T05:45:36.179Z,1.71
2023-10-16T05:46:36.133Z,1.56
2023-10-16T05:47:36.172Z,1.56
2023-10-16T05:48:36.192Z,1.59
2023-10-16T05:49:36.095Z,1.55
2023-10-16T05:50:36.525Z,1.58
2023-10-16T05:51:36.103Z,1.53
2023-10-16T05:52:36.151Z,1.50
2023-10-16T05:53:36.039Z,1.42
2023-10-16T05:54:36.241Z,1.44
2023-10-16T05:55:36.015Z,1.50
2023-10-16T05:56:36.010Z,1.48
2023-10-16T05:57:36.086Z,1.42
2023-10-16T05:58:36.078Z,1.45
2023-10-16T05:59:36.444Z,1.41
2023-10-16T06:00:37.113Z,1.40
2023-10-16T06:01:36.024Z,1.38
2023-10-16T06:02:36.057Z,1.41
2023-10-16T06:03:36.985Z,1.35
2023-10-16T06:04:36.177Z,1.59
2023-10-16T06:05:36.101Z,1.62
2023-10-16T06:06:35.972Z,1.53
2023-10-16T06:07:36.145Z,1.58
2023-10-16T06:08:36.067Z,1.59
2023-10-16T06:09:36.020Z,1.52
2023-10-16T06:10:35.969Z,1.52
2023-10-16T06:11:36.165Z,1.41
2023-10-16T06:12:36.035Z,1.44
2023-10-16T06:13:36.211Z,1.53
2023-10-16T06:14:37.184Z,1.52
2023-10-16T06:15:36.925Z,1.41
2023-10-16T06:16:36.011Z,1.31
2023-10-16T06:17:35.950Z,1.44
2023-10-16T06:18:35.983Z,1.45
2023-10-16T06:19:35.837Z,1.42
2023-10-16T06:20:35.853Z,1.38
2023-10-16T06:21:36.119Z,1.50
2023-10-16T06:22:36.397Z,1.59
2023-10-16T06:23:36.086Z,1.59
2023-10-16T06:24:35.965Z,1.63
2023-10-16T06:25:35.858Z,1.58
2023-10-16T06:26:35.893Z,1.62
2023-10-16T06:27:35.956Z,1.45
2023-10-16T06:28:35.867Z,1.53
2023-10-16T06:29:36.102Z,1.60
2023-10-16T06:30:35.870Z,1.66
2023-10-16T06:31:35.853Z,1.62
2023-10-16T06:32:35.870Z,1.56
2023-10-16T06:33:35.945Z,1.63
2023-10-16T06:34:35.977Z,1.70
2023-10-16T06:35:35.866Z,1.70
2023-10-16T06:36:35.781Z,1.73
2023-10-16T06:37:35.755Z,1.68
2023-10-16T06:38:35.747Z,1.67
2023-10-16T06:39:35.860Z,1.58
2023-10-16T06:40:35.756Z,1.67
2023-10-16T06:41:35.772Z,1.78
2023-10-16T06:42:35.728Z,1.71
2023-10-16T06:43:35.705Z,1.85
2023-10-16T06:44:35.957Z,2.00
2023-10-16T06:45:35.841Z,1.81
2023-10-16T06:46:35.739Z,1.88
2023-10-16T06:47:35.685Z,1.84
2023-10-16T06:48:35.716Z,1.94
2023-10-16T06:49:35.658Z,1.78
2023-10-16T06:50:35.677Z,1.87
2023-10-16T06:51:35.720Z,1.91
2023-10-16T06:52:35.671Z,1.92
2023-10-16T06:53:35.884Z,2.02
2023-10-16T06:54:35.749Z,2.06
2023-10-16T06:55:35.671Z,2.07
2023-10-16T06:56:35.795Z,2.08
2023-10-16T06:57:35.814Z,2.04
2023-10-16T06:58:35.746Z,2.20
2023-10-16T06:59:35.588Z,2.28
2023-10-16T07:00:35.776Z,2.14
2023-10-16T07:01:35.635Z,2.11
2023-10-16T07:02:35.621Z,2.13
2023-10-16T07:03:35.721Z,2.25
2023-10-16T07:04:35.628Z,2.22
2023-10-16T07:05:35.540Z,2.33
2023-10-16T07:06:35.557Z,2.31
2023-10-16T07:07:36.078Z,2.22
2023-10-16T07:08:35.562Z,2.31
2023-10-16T07:09:35.566Z,2.44
2023-10-16T07:10:35.583Z,2.54
2023-10-16T07:11:35.548Z,2.50
2023-10-16T07:12:35.863Z,2.33
2023-10-16T07:13:35.508Z,2.33
2023-10-16T07:14:35.497Z,2.46
2023-10-16T07:15:35.539Z,2.38
2023-10-16T07:16:37.677Z,2.44
2023-10-16T07:17:37.247Z,2.43
2023-10-16T07:18:36.508Z,2.46
2023-10-16T07:19:35.469Z,2.72
2023-10-16T07:20:35.495Z,2.90
2023-10-16T07:21:36.069Z,2.97
2023-10-16T07:22:35.471Z,3.14
2023-10-16T07:23:35.453Z,3.16
2023-10-16T07:24:35.466Z,3.07
2023-10-16T07:25:35.422Z,3.10
2023-10-16T07:26:36.442Z,2.98
2023-10-16T07:27:35.525Z,2.87
2023-10-16T07:28:35.428Z,2.90
2023-10-16T07:29:35.401Z,2.97
2023-10-16T07:30:35.408Z,2.83
2023-10-16T07:31:35.431Z,2.87
2023-10-16T07:32:35.387Z,3.05
2023-10-16T07:33:35.848Z,3.16
2023-10-16T07:34:35.395Z,3.01
2023-10-16T07:35:35.380Z,3.19
2023-10-16T07:36:35.394Z,3.01
2023-10-16T07:37:35.359Z,3.01
2023-10-16T07:38:35.354Z,3.16
2023-10-16T07:39:35.441Z,3.08
2023-10-16T07:40:35.388Z,3.05
2023-10-16T07:41:35.441Z,3.14
2023-10-16T07:42:35.333Z,3.28
2023-10-16T07:43:35.318Z,3.47
2023-10-16T07:44:35.299Z,3.14
2023-10-16T07:45:36.718Z,3.08
2023-10-16T07:46:36.304Z,3.14
2023-10-16T07:47:35.299Z,3.14
2023-10-16T07:48:35.306Z,3.28
2023-10-16T07:49:35.305Z,3.16
2023-10-16T07:50:35.296Z,3.18
2023-10-16T07:51:36.323Z,3.26
2023-10-16T07:52:35.290Z,3.22
2023-10-16T07:53:35.308Z,3.16
2023-10-16T07:54:35.298Z,3.19
2023-10-16T07:55:35.292Z,3.22
2023-10-16T07:56:35.319Z,3.13
2023-10-16T07:57:35.275Z,3.40
2023-10-16T07:58:35.219Z,3.14
2023-10-16T07:59:37.559Z,3.28
2023-10-16T08:00:35.216Z,3.32
2023-10-16T08:01:35.432Z,3.37
2023-10-16T08:02:35.215Z,3.70
2023-10-16T08:03:35.265Z,3.91
2023-10-16T08:04:35.453Z,3.88
2023-10-16T08:05:35.186Z,3.78
2023-10-16T08:06:35.334Z,3.81
2023-10-16T08:07:35.169Z,3.65
2023-10-16T08:08:35.258Z,3.55
2023-10-16T08:09:35.174Z,3.55
2023-10-16T08:10:35.150Z,3.62
2023-10-16T08:11:35.222Z,3.76
2023-10-16T08:12:35.178Z,3.62
2023-10-16T08:13:35.151Z,3.60
2023-10-16T08:14:35.210Z,3.44
2023-10-16T08:15:35.176Z,3.31
2023-10-16T08:16:35.306Z,3.37
2023-10-16T08:17:35.217Z,3.37
2023-10-16T08:18:35.164Z,3.41
2023-10-16T08:19:35.099Z,3.37
2023-10-16T08:20:35.060Z,3.45
2023-10-16T08:21:36.140Z,3.40
2023-10-16T08:22:35.075Z,3.19
2023-10-16T08:23:35.914Z,3.21
2023-10-16T08:24:35.173Z,3.23
2023-10-16T08:25:35.037Z,3.37
2023-10-16T08:26:35.037Z,3.51
2023-10-16T08:27:35.083Z,3.47
2023-10-16T08:28:35.007Z,3.42
2023-10-16T08:29:35.832Z,3.66
2023-10-16T08:30:35.349Z,3.68
2023-10-16T08:31:35.020Z,3.70
2023-10-16T08:32:35.001Z,3.74
2023-10-16T08:33:35.882Z,3.76
2023-10-16T08:34:35.040Z,3.99
2023-10-16T08:35:34.981Z,3.91
2023-10-16T08:36:35.126Z,4.02
2023-10-16T08:37:50.568Z,3.91
2023-10-16T08:38:36.948Z,3.92
2023-10-16T08:39:36.435Z,4.04
2023-10-16T08:40:34.946Z,3.95
2023-10-16T08:41:34.949Z,3.87
2023-10-16T08:42:35.009Z,3.76
2023-10-16T08:43:35.003Z,4.01
2023-10-16T08:44:34.917Z,3.86
2023-10-16T08:45:35.907Z,4.01
2023-10-16T08:46:34.963Z,4.19
2023-10-16T08:47:34.908Z,4.22
2023-10-16T08:48:34.908Z,4.23
2023-10-16T08:49:44.441Z,4.26
2023-10-16T08:50:36.889Z,4.12
2023-10-16T08:51:34.922Z,4.23
2023-10-16T08:52:34.865Z,4.08
2023-10-16T08:53:35.399Z,4.19
2023-10-16T08:54:35.893Z,4.16
2023-10-16T08:55:34.849Z,4.44
2023-10-16T08:56:34.852Z,4.32
2023-10-16T08:57:34.843Z,4.38
2023-10-16T08:58:34.815Z,4.59
2023-10-16T08:59:34.958Z,4.67
2023-10-16T09:00:34.854Z,4.66
2023-10-16T09:01:35.001Z,4.48
2023-10-16T09:02:35.810Z,4.26
2023-10-16T09:03:35.297Z,4.40
2023-10-16T09:04:34.863Z,4.22
2023-10-16T09:05:34.811Z,4.12
2023-10-16T09:06:34.762Z,4.24
2023-10-16T09:07:34.785Z,4.23
2023-10-16T09:08:34.739Z,4.34
2023-10-16T09:09:34.778Z,4.37
2023-10-16T09:10:34.903Z,4.41
2023-10-16T09:11:34.735Z,4.37
2023-10-16T09:12:34.757Z,4.48
2023-10-16T09:13:34.724Z,4.66
2023-10-16T09:14:34.729Z,4.49
2023-10-16T09:15:34.725Z,4.38
2023-10-16T09:16:34.742Z,4.44
2023-10-16T09:17:34.707Z,4.67
2023-10-16T09:18:34.763Z,4.50
2023-10-16T09:19:34.738Z,4.62
2023-10-16T09:20:34.831Z,4.71
2023-10-16T09:21:34.675Z,4.92
2023-10-16T09:22:35.640Z,4.82
2023-10-16T09:23:34.653Z,4.73
2023-10-16T09:24:34.657Z,4.80
2023-10-16T09:25:38.346Z,4.96
2023-10-16T09:26:35.607Z,5.29
2023-10-16T09:27:34.634Z,5.39
2023-10-16T09:28:34.651Z,5.25
2023-10-16T09:29:36.080Z,5.05
2023-10-16T09:30:35.697Z,4.97
2023-10-16T09:31:34.740Z,5.12
2023-10-16T09:32:34.681Z,5.04
2023-10-16T09:33:34.621Z,5.10
2023-10-16T09:34:34.565Z,4.97
2023-10-16T09:35:34.882Z,4.93
2023-10-16T09:36:34.619Z,5.02
2023-10-16T09:37:34.570Z,5.15
2023-10-16T09:38:34.680Z,5.20
2023-10-16T09:39:34.549Z,5.28
2023-10-16T09:40:36.496Z,5.62
2023-10-16T09:41:34.514Z,5.54
2023-10-16T09:42:34.550Z,5.25
2023-10-16T09:43:34.491Z,5.20
2023-10-16T09:44:34.482Z,5.39
2023-10-16T09:45:34.503Z,5.59
2023-10-16T09:46:34.501Z,5.86
2023-10-16T09:47:34.492Z,5.73
2023-10-16T09:48:34.665Z,5.69
2023-10-16T09:49:34.500Z,5.72
2023-10-16T09:50:34.463Z,5.91
2023-10-16T09:51:34.524Z,6.04
2023-10-16T09:52:34.534Z,6.14
2023-10-16T09:53:34.436Z,6.01
2023-10-16T09:54:34.441Z,5.99
2023-10-16T09:55:34.428Z,6.11
2023-10-16T09:56:34.457Z,6.07
2023-10-16T09:57:34.429Z,5.99
2023-10-16T09:58:34.381Z,6.02
2023-10-16T09:59:35.427Z,6.04
2023-10-16T10:00:34.398Z,6.09
2023-10-16T10:01:34.492Z,5.94
2023-10-16T10:02:34.429Z,6.05
2023-10-16T10:03:34.468Z,6.09
2023-10-16T10:04:34.534Z,6.42
2023-10-16T10:05:34.344Z,6.49
2023-10-16T10:06:34.359Z,6.48
2023-10-16T10:07:34.352Z,6.64
2023-10-16T10:08:35.552Z,6.72
2023-10-16T10:09:34.350Z,6.62
2023-10-16T10:10:37.433Z,6.85
2023-10-16T10:11:34.316Z,6.67
2023-10-16T10:12:34.353Z,6.39
2023-10-16T10:13:34.291Z,6.33
2023-10-16T10:14:34.294Z,6.52
2023-10-16T10:15:35.359Z,6.52
2023-10-16T10:16:34.286Z,6.63
2023-10-16T10:17:34.255Z,6.69
2023-10-16T10:18:34.333Z,6.59
2023-10-16T10:19:34.308Z,6.60
2023-10-16T10:20:34.330Z,6.59
2023-10-16T10:21:34.274Z,6.30
2023-10-16T10:22:34.213Z,6.20
2023-10-16T10:23:34.245Z,6.51
2023-10-16T10:24:34.372Z,6.52
2023-10-16T10:25:34.525Z,6.69
2023-10-16T10:26:34.260Z,6.82
2023-10-16T10:27:34.222Z,6.87
2023-10-16T10:28:34.176Z,6.82
2023-10-16T10:29:34.201Z,7.11
2023-10-16T10:30:34.220Z,7.51
2023-10-16T10:31:34.247Z,7.57
2023-10-16T10:32:34.184Z,7.29
2023-10-16T10:33:34.189Z,7.25
2023-10-16T10:34:34.294Z,7.23
2023-10-16T10:35:34.142Z,7.23
2023-10-16T10:36:35.292Z,7.31
2023-10-16T10:37:34.114Z,7.38
2023-10-16T10:38:34.162Z,7.32
2023-10-16T10:39:34.300Z,7.02
2023-10-16T10:40:34.088Z,7.35
2023-10-16T10:41:34.080Z,7.66
2023-10-16T10:42:34.138Z,7.40
2023-10-16T10:43:34.091Z,7.39
2023-10-16T10:44:34.102Z,7.47
2023-10-16T10:45:34.062Z,7.61
2023-10-16T10:46:34.197Z,7.28
2023-10-16T10:47:34.293Z,7.42
2023-10-16T10:48:34.118Z,7.63
2023-10-16T10:49:34.136Z,7.48
2023-10-16T10:50:34.060Z,7.53
2023-10-16T10:51:34.080Z,7.70
2023-10-16T10:52:34.575Z,7.98
2023-10-16T10:53:34.213Z,7.95
2023-10-16T10:54:34.396Z,7.88
2023-10-16T10:55:34.318Z,8.12
2023-10-16T10:56:34.090Z,8.03
2023-10-16T10:57:34.066Z,8.26
2023-10-16T10:58:33.999Z,8.87
2023-10-16T10:59:34.865Z,9.29
2023-10-16T11:00:35.352Z,9.95
2023-10-16T11:01:34.014Z,9.66
2023-10-16T11:02:34.035Z,9.74
2023-10-16T11:03:34.145Z,10.17
2023-10-16T11:04:34.117Z,10.19
2023-10-16T11:05:33.961Z,10.12
2023-10-16T11:06:34.031Z,10.59
2023-10-16T11:07:36.154Z,10.25
2023-10-16T11:08:33.998Z,9.59
2023-10-16T11:09:34.012Z,9.82
2023-10-16T11:10:34.542Z,10.09
2023-10-16T11:11:33.927Z,10.23
2023-10-16T11:12:33.935Z,10.25
2023-10-16T11:13:33.867Z,10.63
2023-10-16T11:14:33.900Z,9.69
2023-10-16T11:15:33.884Z,9.86
2023-10-16T11:16:33.921Z,10.33
2023-10-16T11:17:33.893Z,10.76
2023-10-16T11:18:34.044Z,10.84
2023-10-16T11:19:33.859Z,11.12
2023-10-16T11:20:33.830Z,11.02
2023-10-16T11:21:35.318Z,11.26
2023-10-16T11:22:33.801Z,11.84
2023-10-16T11:23:33.808Z,12.36
2023-10-16T11:24:35.024Z,11.77
2023-10-16T11:25:33.813Z,10.61
2023-10-16T11:26:34.455Z,10.78
2023-10-16T11:27:33.840Z,10.89
2023-10-16T11:28:33.878Z,10.86
2023-10-16T11:29:33.840Z,10.97
2023-10-16T11:30:33.875Z,11.26
2023-10-16T11:31:33.842Z,11.65
2023-10-16T11:32:33.774Z,11.25
2023-10-16T11:33:33.867Z,10.68
2023-10-16T11:34:33.934Z,10.90
2023-10-16T11:35:33.745Z,11.83
2023-10-16T11:36:39.593Z,11.84
2023-10-16T11:37:35.700Z,11.90
2023-10-16T11:38:33.709Z,12.80
2023-10-16T11:39:33.774Z,14.25
2023-10-16T11:40:33.808Z,15.35
2023-10-16T11:41:33.705Z,13.79
2023-10-16T11:42:33.707Z,13.30
2023-10-16T11:43:33.679Z,12.54
2023-10-16T11:44:33.855Z,12.53
2023-10-16T11:45:33.697Z,13.27
2023-10-16T11:46:33.723Z,13.27
2023-10-16T11:47:33.676Z,14.54
2023-10-16T11:48:33.704Z,14.45
2023-10-16T11:49:33.667Z,15.04
2023-10-16T11:50:33.637Z,15.62
2023-10-16T11:51:33.683Z,16.50
2023-10-16T11:52:33.637Z,17.04
2023-10-16T11:53:34.837Z,17.72
2023-10-16T11:54:33.673Z,18.18
2023-10-16T11:55:33.631Z,18.60
2023-10-16T11:56:33.676Z,18.10
2023-10-16T11:57:33.632Z,16.42
2023-10-16T11:58:33.599Z,16.57
2023-10-16T11:59:33.586Z,17.01
2023-10-16T12:00:33.557Z,16.94
2023-10-16T12:01:43.295Z,16.36
2023-10-16T12:02:36.550Z,16.43
2023-10-16T12:03:34.661Z,14.53
2023-10-16T12:04:33.781Z,13.50
2023-10-16T12:05:33.546Z,13.15
2023-10-16T12:06:33.599Z,13.56
2023-10-16T12:07:33.525Z,13.27
2023-10-16T12:08:33.622Z,14.65
2023-10-16T12:09:33.556Z,15.70
2023-10-16T12:10:33.506Z,17.02
2023-10-16T12:11:33.488Z,18.13
2023-10-16T12:12:33.701Z,18.04
2023-10-16T12:13:33.488Z,16.65
2023-10-16T12:14:33.468Z,15.42
2023-10-16T12:15:33.523Z,15.73
2023-10-16T12:16:36.694Z,17.14
2023-10-16T12:17:34.465Z,18.16
2023-10-16T12:18:33.482Z,17.72
2023-10-16T12:19:33.427Z,18.11
2023-10-16T12:20:33.498Z,17.87
2023-10-16T12:21:33.573Z,16.96
2023-10-16T12:22:33.976Z,15.83
2023-10-16T12:23:33.410Z,15.67
2023-10-16T12:24:33.448Z,16.47
2023-10-16T12:25:33.377Z,16.89
2023-10-16T12:26:33.398Z,17.51
2023-10-16T12:27:33.400Z,17.54
2023-10-16T12:28:34.116Z,17.79
2023-10-16T12:29:33.370Z,17.57
2023-10-16T12:30:33.364Z,17.70
2023-10-16T12:31:33.384Z,18.34
2023-10-16T12:32:33.372Z,18.78
2023-10-16T12:33:34.364Z,18.93
2023-10-16T12:34:33.326Z,18.08
2023-10-16T12:35:33.316Z,18.26
2023-10-16T12:36:33.337Z,18.53
2023-10-16T12:37:33.330Z,17.82
2023-10-16T12:38:33.296Z,17.97
2023-10-16T12:39:33.322Z,18.80
2023-10-16T12:40:33.283Z,18.70
2023-10-16T12:41:34.410Z,16.84
2023-10-16T12:42:33.418Z,16.64
2023-10-16T12:43:33.271Z,17.63
2023-10-16T12:44:33.372Z,16.42
2023-10-16T12:45:33.321Z,15.54
2023-10-16T12:46:33.354Z,14.58
2023-10-16T12:47:43.987Z,15.18
2023-10-16T12:48:35.307Z,15.47
2023-10-16T12:49:33.207Z,16.08
2023-10-16T12:50:33.314Z,16.51
2023-10-16T12:51:33.217Z,16.46
2023-10-16T12:52:33.197Z,16.84
2023-10-16T12:53:33.199Z,16.53
2023-10-16T12:54:33.227Z,16.15
2023-10-16T12:55:33.197Z,15.64
2023-10-16T12:56:33.169Z,16.56
2023-10-16T12:57:33.167Z,16.20
2023-10-16T12:58:33.180Z,17.24
2023-10-16T12:59:33.171Z,18.22
2023-10-16T13:00:33.276Z,18.37
2023-10-16T13:01:33.134Z,18.28
2023-10-16T13:02:33.163Z,18.00
2023-10-16T13:03:33.142Z,17.59
2023-10-16T13:04:33.346Z,18.25
2023-10-16T13:05:33.113Z,18.16
2023-10-16T13:06:33.160Z,16.02
2023-10-16T13:08:35.143Z,15.14
2023-10-16T13:09:33.089Z,14.66
2023-10-16T13:10:33.227Z,14.58
2023-10-16T13:11:33.088Z,15.59
2023-10-16T13:12:33.057Z,16.46
2023-10-16T13:13:33.525Z,16.81
2023-10-16T13:14:33.081Z,15.79
2023-10-16T13:15:33.178Z,15.11
2023-10-16T13:16:33.140Z,15.19